createdAt,value
2018-11-03T00:01:00.745Z,19.70
2018-11-03T00:03:28.634Z,15.67
2018-11-03T00:05:56.936Z,17.63
2018-11-03T00:08:25.228Z,15.43
2018-11-03T00:10:53.329Z,20.40
2018-11-03T00:13:21.256Z,23.77
2018-11-03T00:15:49.217Z,15.77
2018-11-03T00:18:17.266Z,16.33
2018-11-03T00:20:45.226Z,17.77
2018-11-03T00:23:13.291Z,19.33
2018-11-03T00:25:41.267Z,14.47
2018-11-03T00:28:09.363Z,15.93
2018-11-03T00:30:37.365Z,14.53
2018-11-03T00:33:05.585Z,18.63
2018-11-03T00:35:33.526Z,14.40
2018-11-03T00:38:01.468Z,17.27
2018-11-03T00:40:29.463Z,13.13
2018-11-03T00:42:57.575Z,18.60
2018-11-03T00:45:25.501Z,19.70
2018-11-03T00:47:53.424Z,15.43
2018-11-03T00:50:21.425Z,14.90
2018-11-03T00:52:49.341Z,19.53
2018-11-03T00:55:17.311Z,15.77
2018-11-03T00:57:45.213Z,15.17
2018-11-03T01:00:15.301Z,17.70
2018-11-03T01:02:44.383Z,17.70
2018-11-03T01:05:12.821Z,17.00
2018-11-03T01:07:41.592Z,16.50
2018-11-03T01:10:09.768Z,14.63
2018-11-03T01:12:38.508Z,18.70
2018-11-03T01:15:08.289Z,16.17
2018-11-03T01:17:36.204Z,16.47
2018-11-03T01:20:04.851Z,16.73
2018-11-03T01:22:32.757Z,17.53
2018-11-03T01:25:00.725Z,15.43
2018-11-03T01:27:28.660Z,16.57
2018-11-03T01:29:56.600Z,16.67
2018-11-03T01:32:24.591Z,13.73
2018-11-03T01:34:52.582Z,16.77
2018-11-03T01:37:20.537Z,17.07
2018-11-03T01:39:48.513Z,18.00
2018-11-03T01:42:16.474Z,16.90
2018-11-03T01:44:44.437Z,14.40
2018-11-03T01:47:12.386Z,15.50
2018-11-03T01:49:40.379Z,23.53
2018-11-03T01:52:08.309Z,13.77
2018-11-03T01:54:36.360Z,15.67
2018-11-03T01:57:04.492Z,15.27
2018-11-03T01:59:32.539Z,17.93
2018-11-03T02:02:00.524Z,15.87
2018-11-03T02:04:28.418Z,15.93
2018-11-03T02:06:56.344Z,15.27
2018-11-03T02:09:24.297Z,17.40
2018-11-03T02:11:52.389Z,15.93
2018-11-03T02:14:20.335Z,14.60
2018-11-03T02:16:48.458Z,15.73
2018-11-03T02:19:16.474Z,16.60
2018-11-03T02:21:44.507Z,15.17
2018-11-03T02:24:12.616Z,13.67
2018-11-03T02:26:40.624Z,14.63
2018-11-03T02:29:08.934Z,14.80
2018-11-03T02:31:37.152Z,13.10
2018-11-03T02:34:05.125Z,15.83
2018-11-03T02:36:33.136Z,16.10
2018-11-03T02:39:01.078Z,13.83
2018-11-03T02:41:29.348Z,16.30
2018-11-03T02:43:57.399Z,19.07
2018-11-03T02:46:25.301Z,17.00
2018-11-03T02:48:53.214Z,18.47
2018-11-03T02:51:21.161Z,15.10
2018-11-03T02:53:49.241Z,14.93
2018-11-03T02:56:17.240Z,15.43
2018-11-03T02:58:45.395Z,14.67
2018-11-03T03:01:13.361Z,15.30
2018-11-03T03:03:41.425Z,14.67
2018-11-03T03:06:09.343Z,16.17
2018-11-03T03:08:37.263Z,18.83
2018-11-03T03:11:05.292Z,15.40
2018-11-03T03:13:33.232Z,15.53
2018-11-03T03:16:01.195Z,13.17
2018-11-03T03:18:29.161Z,17.27
2018-11-03T03:20:57.091Z,15.07
2018-11-03T03:23:24.985Z,16.30
2018-11-03T03:25:53.029Z,16.10
2018-11-03T03:28:20.965Z,20.87
2018-11-03T03:30:48.900Z,15.17
2018-11-03T03:33:16.883Z,16.83
2018-11-03T03:35:44.923Z,19.73
2018-11-03T03:38:12.817Z,14.70
2018-11-03T03:40:40.856Z,20.03
2018-11-03T03:43:08.773Z,18.23
2018-11-03T03:45:36.751Z,18.80
2018-11-03T03:48:04.746Z,23.83
2018-11-03T03:50:32.707Z,18.40
2018-11-03T03:53:00.753Z,17.53
2018-11-03T03:55:28.734Z,16.27
2018-11-03T03:57:56.876Z,17.23
2018-11-03T04:00:24.945Z,19.77
2018-11-03T04:02:52.971Z,18.40
2018-11-03T04:05:20.928Z,17.20
2018-11-03T04:07:48.899Z,24.70
2018-11-03T04:10:16.955Z,18.60
2018-11-03T04:12:45.096Z,19.77
2018-11-03T04:15:13.126Z,19.90
2018-11-03T04:17:41.191Z,19.60
2018-11-03T04:20:09.164Z,15.67
2018-11-03T04:22:37.189Z,17.00
2018-11-03T04:25:05.446Z,16.67
2018-11-03T04:27:33.711Z,15.67
2018-11-03T04:30:01.674Z,16.70
2018-11-03T04:32:29.666Z,15.07
2018-11-03T04:34:57.782Z,15.77
2018-11-03T04:37:25.760Z,17.17
2018-11-03T04:39:54.053Z,18.73
2018-11-03T04:42:22.024Z,20.43
2018-11-03T04:44:50.223Z,17.03
2018-11-03T04:47:18.243Z,17.07
2018-11-03T04:49:46.283Z,18.60
2018-11-03T04:52:14.186Z,17.70
2018-11-03T04:54:42.135Z,18.53
2018-11-03T04:57:10.297Z,13.23
2018-11-03T04:59:38.578Z,18.83
2018-11-03T05:02:06.806Z,15.30
2018-11-03T05:04:34.732Z,16.60
2018-11-03T05:07:02.835Z,15.23
2018-11-03T05:09:30.793Z,18.83
2018-11-03T05:11:58.774Z,15.03
2018-11-03T05:14:26.664Z,19.07
2018-11-03T05:16:54.702Z,21.43
2018-11-03T05:19:22.691Z,18.13
2018-11-03T05:21:50.758Z,16.50
2018-11-03T05:24:18.919Z,20.23
2018-11-03T05:26:46.977Z,16.23
2018-11-03T05:29:15.017Z,15.97
2018-11-03T05:31:42.987Z,21.37
2018-11-03T05:34:11.322Z,18.17
2018-11-03T05:36:39.441Z,15.60
2018-11-03T05:39:09.732Z,19.97
2018-11-03T05:41:37.909Z,19.03
2018-11-03T05:44:05.874Z,17.90
2018-11-03T05:46:33.894Z,16.77
2018-11-03T05:49:02.113Z,17.67
2018-11-03T05:51:30.014Z,18.83
2018-11-03T05:53:57.984Z,16.17
2018-11-03T05:56:25.965Z,18.20
2018-11-03T05:58:54.196Z,16.47
2018-11-03T06:01:22.172Z,14.47
2018-11-03T06:03:50.472Z,19.23
2018-11-03T06:06:18.467Z,19.27
2018-11-03T06:08:46.699Z,22.20
2018-11-03T06:11:14.941Z,18.90
2018-11-03T06:13:43.192Z,18.53
2018-11-03T06:16:11.660Z,16.57
2018-11-03T06:18:40.545Z,22.00
2018-11-03T06:21:09.057Z,17.10
2018-11-03T06:23:37.360Z,14.50
2018-11-03T06:26:05.878Z,20.10
2018-11-03T06:28:33.991Z,17.97
2018-11-03T06:31:02.210Z,17.03
2018-11-03T06:33:30.342Z,21.13
2018-11-03T06:35:58.388Z,18.60
2018-11-03T06:38:26.440Z,14.57
2018-11-03T06:40:54.542Z,18.60
2018-11-03T06:43:22.715Z,18.47
2018-11-03T06:45:50.859Z,17.00
2018-11-03T06:48:18.876Z,19.60
2018-11-03T06:50:47.136Z,22.93
2018-11-03T06:53:15.460Z,23.83
2018-11-03T06:55:43.397Z,23.40
2018-11-03T06:58:12.661Z,25.73
2018-11-03T07:00:40.867Z,20.03
2018-11-03T07:03:08.900Z,16.13
2018-11-03T07:05:36.989Z,18.53
2018-11-03T07:08:05.512Z,18.10
2018-11-03T07:10:33.626Z,19.60
2018-11-03T07:13:01.961Z,20.27
2018-11-03T07:15:29.959Z,21.63
2018-11-03T07:17:57.900Z,17.47
2018-11-03T07:20:28.682Z,24.00
2018-11-03T07:22:56.971Z,22.37
2018-11-03T07:25:25.176Z,21.27
2018-11-03T07:27:53.408Z,22.37
2018-11-03T07:30:21.712Z,30.90
2018-11-03T07:32:49.881Z,22.90
2018-11-03T07:35:18.076Z,20.57
2018-11-03T07:37:46.207Z,16.20
2018-11-03T07:40:15.238Z,22.67
2018-11-03T07:42:43.575Z,19.87
2018-11-03T07:45:11.682Z,24.40
2018-11-03T07:47:39.633Z,15.93
2018-11-03T07:50:09.789Z,18.00
2018-11-03T07:52:38.068Z,21.30
2018-11-03T07:55:07.449Z,16.50
2018-11-03T07:57:35.883Z,19.07
2018-11-03T08:00:04.525Z,17.97
2018-11-03T08:02:32.798Z,16.77
2018-11-03T08:05:00.948Z,18.33
2018-11-03T08:07:29.142Z,20.40
2018-11-03T08:09:57.431Z,16.87
2018-11-03T08:12:25.501Z,16.17
2018-11-03T08:14:53.510Z,19.07
2018-11-03T08:17:21.490Z,15.73
2018-11-03T08:19:49.805Z,18.40
2018-11-03T08:22:17.867Z,15.10
2018-11-03T08:24:45.913Z,17.50
2018-11-03T08:27:14.020Z,15.00
2018-11-03T08:29:41.956Z,14.37
2018-11-03T08:32:09.984Z,14.00
2018-11-03T08:34:38.021Z,16.80
2018-11-03T08:37:06.128Z,16.37
2018-11-03T08:39:34.128Z,20.17
2018-11-03T08:42:02.136Z,16.67
2018-11-03T08:44:30.093Z,19.43
2018-11-03T08:46:58.141Z,15.70
2018-11-03T08:49:26.083Z,16.67
2018-11-03T08:51:54.048Z,18.83
2018-11-03T08:54:22.013Z,20.23
2018-11-03T08:56:50.036Z,16.37
2018-11-03T08:59:18.183Z,18.17
2018-11-03T09:01:46.228Z,17.93
2018-11-03T09:04:14.193Z,15.97
2018-11-03T09:06:42.322Z,14.47
2018-11-03T09:09:10.530Z,21.93
2018-11-03T09:11:38.575Z,16.00
2018-11-03T09:14:06.964Z,21.73
2018-11-03T09:16:35.074Z,15.93
2018-11-03T09:19:03.347Z,18.10
2018-11-03T09:21:31.568Z,16.20
2018-11-03T09:23:59.641Z,18.70
2018-11-03T09:26:27.665Z,16.90
2018-11-03T09:28:55.692Z,18.73
2018-11-03T09:31:23.744Z,16.33
2018-11-03T09:33:51.745Z,18.67
2018-11-03T09:36:19.947Z,14.60
2018-11-03T09:38:48.184Z,14.93
2018-11-03T09:41:16.004Z,17.67
2018-11-03T09:43:44.138Z,15.07
2018-11-03T09:46:12.144Z,14.50
2018-11-03T09:48:40.232Z,15.33
2018-11-03T09:51:08.390Z,13.93
2018-11-03T09:53:36.553Z,13.07
2018-11-03T09:56:04.667Z,11.63
2018-11-03T09:58:32.946Z,12.27
2018-11-03T10:01:01.024Z,14.17
2018-11-03T10:03:29.165Z,16.50
2018-11-03T10:05:57.398Z,14.83
2018-11-03T10:08:25.773Z,14.23
2018-11-03T10:10:54.002Z,13.67
2018-11-03T10:13:22.250Z,19.07
2018-11-03T10:15:50.407Z,16.10
2018-11-03T10:18:18.426Z,15.07
2018-11-03T10:20:46.667Z,13.47
2018-11-03T10:23:14.956Z,12.80
2018-11-03T10:25:43.180Z,15.50
2018-11-03T10:28:11.588Z,12.10
2018-11-03T10:30:39.743Z,11.00
2018-11-03T10:33:07.884Z,15.40
2018-11-03T10:35:36.068Z,15.30
2018-11-03T10:38:04.521Z,12.07
2018-11-03T10:40:32.834Z,16.60
2018-11-03T10:43:01.111Z,16.10
2018-11-03T10:45:29.294Z,14.17
2018-11-03T10:47:57.495Z,11.37
2018-11-03T10:50:25.748Z,14.37
2018-11-03T10:52:54.446Z,12.40
2018-11-03T10:55:22.683Z,11.20
2018-11-03T10:57:50.962Z,12.60
2018-11-03T11:00:25.758Z,13.60
2018-11-03T11:03:00.055Z,13.20
2018-11-03T11:05:34.455Z,11.67
2018-11-03T11:08:08.900Z,11.83
2018-11-03T11:10:42.634Z,12.07
2018-11-03T11:13:18.911Z,11.33
2018-11-03T11:15:48.199Z,10.57
2018-11-03T11:18:16.632Z,12.17
2018-11-03T11:20:45.737Z,13.10
2018-11-03T11:23:14.306Z,12.13
2018-11-03T11:25:42.823Z,10.47
2018-11-03T11:28:11.074Z,10.37
2018-11-03T11:30:41.646Z,11.50
2018-11-03T11:33:11.604Z,13.17
2018-11-03T11:35:40.125Z,13.87
2018-11-03T11:38:09.632Z,9.73
2018-11-03T11:40:38.771Z,13.13
2018-11-03T11:43:09.535Z,11.90
2018-11-03T11:45:38.008Z,11.17
2018-11-03T11:48:06.382Z,9.33
2018-11-03T11:50:34.678Z,10.83
2018-11-03T11:53:03.067Z,11.33
2018-11-03T11:55:31.663Z,10.10
2018-11-03T11:58:00.126Z,9.27
2018-11-03T12:00:28.590Z,13.00
2018-11-03T12:02:57.089Z,9.03
2018-11-03T12:05:25.409Z,9.40
2018-11-03T12:07:54.097Z,12.00
2018-11-03T12:10:22.614Z,9.50
2018-11-03T12:12:51.403Z,11.90
2018-11-03T12:15:19.832Z,11.83
2018-11-03T12:17:48.174Z,9.53
2018-11-03T12:20:16.519Z,10.70
2018-11-03T12:22:44.913Z,11.23
2018-11-03T12:25:13.265Z,12.37
2018-11-03T12:27:42.175Z,10.03
2018-11-03T12:30:13.146Z,11.43
2018-11-03T12:32:41.595Z,11.03
2018-11-03T12:35:10.775Z,11.93
2018-11-03T12:37:39.922Z,12.50
2018-11-03T12:40:11.725Z,10.87
2018-11-03T12:42:40.057Z,11.47
2018-11-03T12:45:09.185Z,12.03
2018-11-03T12:47:37.542Z,11.07
2018-11-03T12:50:07.557Z,11.77
2018-11-03T12:52:36.202Z,12.43
2018-11-03T12:55:05.107Z,12.43
2018-11-03T12:57:33.370Z,10.10
2018-11-03T13:00:01.758Z,11.73
2018-11-03T13:02:30.483Z,9.67
2018-11-03T13:04:58.919Z,9.77
2018-11-03T13:07:27.080Z,9.57
2018-11-03T13:09:55.526Z,10.40
2018-11-03T13:12:23.887Z,12.63
2018-11-03T13:14:52.366Z,11.37
2018-11-03T13:17:21.613Z,12.27
2018-11-03T13:19:51.087Z,9.50
2018-11-03T13:22:19.486Z,10.17
2018-11-03T13:24:47.642Z,9.73
2018-11-03T13:27:15.806Z,12.37
2018-11-03T13:29:44.018Z,11.37
2018-11-03T13:32:12.229Z,12.90
2018-11-03T13:34:40.595Z,12.70
2018-11-03T13:37:08.791Z,11.97
2018-11-03T13:39:37.095Z,11.10
2018-11-03T13:42:05.538Z,11.67
2018-11-03T13:44:34.185Z,10.77
2018-11-03T13:47:02.779Z,13.90
2018-11-03T13:49:31.497Z,15.17
2018-11-03T13:51:59.930Z,12.03
2018-11-03T13:54:28.059Z,10.97
2018-11-03T13:56:56.289Z,11.47
2018-11-03T13:59:24.437Z,15.57
2018-11-03T14:01:52.672Z,9.70
2018-11-03T14:04:20.887Z,13.17
2018-11-03T14:06:49.001Z,13.73
2018-11-03T14:09:17.273Z,10.17
2018-11-03T14:11:45.593Z,9.73
2018-11-03T14:14:13.934Z,13.03
2018-11-03T14:16:42.371Z,12.60
2018-11-03T14:19:10.631Z,10.57
2018-11-03T14:21:38.892Z,12.93
2018-11-03T14:24:07.042Z,9.90
2018-11-03T14:26:35.259Z,12.70
2018-11-03T14:29:03.595Z,11.87
2018-11-03T14:31:32.052Z,11.97
2018-11-03T14:34:00.482Z,9.27
2018-11-03T14:36:28.864Z,10.43
2018-11-03T14:38:57.900Z,11.67
2018-11-03T14:41:26.464Z,11.50
2018-11-03T14:43:54.869Z,13.40
2018-11-03T14:46:23.739Z,11.33
2018-11-03T14:48:52.094Z,14.60
2018-11-03T14:51:20.491Z,11.47
2018-11-03T14:53:49.202Z,11.57
2018-11-03T14:56:17.605Z,11.80
2018-11-03T14:58:46.919Z,11.63
2018-11-03T15:01:15.259Z,15.47
2018-11-03T15:03:43.586Z,14.83
2018-11-03T15:06:11.714Z,14.03
2018-11-03T15:08:40.145Z,13.20
2018-11-03T15:11:08.843Z,13.53
2018-11-03T15:13:37.173Z,11.47
2018-11-03T15:16:05.837Z,11.27
2018-11-03T15:18:34.158Z,9.90
2018-11-03T15:21:03.116Z,11.67
2018-11-03T15:23:31.224Z,10.13
2018-11-03T15:25:59.469Z,10.60
2018-11-03T15:28:27.824Z,13.10
2018-11-03T15:30:55.948Z,7.33
2018-11-03T15:33:24.093Z,11.90
2018-11-03T15:35:52.469Z,12.33
2018-11-03T15:38:20.720Z,14.30
2018-11-03T15:40:49.550Z,12.27
2018-11-03T15:43:18.133Z,8.60
2018-11-03T15:45:46.486Z,8.33
2018-11-03T15:48:14.980Z,10.70
2018-11-03T15:50:49.136Z,13.27
2018-11-03T15:53:17.607Z,11.73
2018-11-03T15:55:45.931Z,7.17
2018-11-03T15:58:14.440Z,8.97
2018-11-03T16:00:43.017Z,8.67
2018-11-03T16:03:11.239Z,8.20
2018-11-03T16:05:39.432Z,10.73
2018-11-03T16:08:07.584Z,7.63
2018-11-03T16:10:35.745Z,7.77
2018-11-03T16:13:04.069Z,7.17
2018-11-03T16:15:32.433Z,7.47
2018-11-03T16:18:01.199Z,10.20
2018-11-03T16:20:30.281Z,11.20
2018-11-03T16:22:58.748Z,7.53
2018-11-03T16:25:27.093Z,13.10
2018-11-03T16:27:55.314Z,9.80
2018-11-03T16:30:23.908Z,7.60
2018-11-03T16:32:52.260Z,10.03
2018-11-03T16:35:20.715Z,7.60
2018-11-03T16:37:48.864Z,7.53
2018-11-03T16:40:17.566Z,9.50
2018-11-03T16:42:46.086Z,7.50
2018-11-03T16:45:15.631Z,12.43
2018-11-03T16:47:43.996Z,8.43
2018-11-03T16:50:13.814Z,7.93
2018-11-03T16:52:42.471Z,10.27
2018-11-03T16:55:11.818Z,7.73
2018-11-03T16:57:40.091Z,5.87
2018-11-03T17:00:10.632Z,6.43
2018-11-03T17:02:39.097Z,6.57
2018-11-03T17:05:07.999Z,7.37
2018-11-03T17:07:36.297Z,11.90
2018-11-03T17:10:06.540Z,11.03
2018-11-03T17:12:34.978Z,10.60
2018-11-03T17:15:03.220Z,6.87
2018-11-03T17:17:31.507Z,7.43
2018-11-03T17:20:00.273Z,7.13
2018-11-03T17:22:28.771Z,8.30
2018-11-03T17:24:57.211Z,9.83
2018-11-03T17:27:25.892Z,8.80
2018-11-03T17:29:54.250Z,8.10
2018-11-03T17:32:22.434Z,5.90
2018-11-03T17:34:50.688Z,8.60
2018-11-03T17:37:19.112Z,7.93
2018-11-03T17:39:47.482Z,7.83
2018-11-03T17:42:15.670Z,7.07
2018-11-03T17:44:43.857Z,8.30
2018-11-03T17:47:12.048Z,12.03
2018-11-03T17:49:40.374Z,8.83
2018-11-03T17:52:08.604Z,7.37
2018-11-03T17:54:37.925Z,8.87
2018-11-03T17:57:06.061Z,7.27
2018-11-03T17:59:34.270Z,11.00
2018-11-03T18:02:02.805Z,10.23
2018-11-03T18:04:31.173Z,10.80
2018-11-03T18:06:59.798Z,12.30
2018-11-03T18:09:28.549Z,9.20
2018-11-03T18:11:56.798Z,8.97
2018-11-03T18:14:25.317Z,8.73
2018-11-03T18:16:53.795Z,10.60
2018-11-03T18:19:22.053Z,8.93
2018-11-03T18:21:50.584Z,10.00
2018-11-03T18:24:18.859Z,8.10
2018-11-03T18:26:47.482Z,8.80
2018-11-03T18:29:15.813Z,7.03
2018-11-03T18:31:44.609Z,8.60
2018-11-03T18:34:13.145Z,8.03
2018-11-03T18:36:41.692Z,7.77
2018-11-03T18:39:11.225Z,10.93
2018-11-03T18:41:39.917Z,12.47
2018-11-03T18:44:08.934Z,10.80
2018-11-03T18:46:37.405Z,9.50
2018-11-03T18:49:05.858Z,10.60
2018-11-03T18:51:34.365Z,12.77
2018-11-03T18:54:02.846Z,11.47
2018-11-03T18:56:31.414Z,15.53
2018-11-03T18:58:59.830Z,8.13
2018-11-03T19:01:28.197Z,8.93
2018-11-03T19:03:56.463Z,9.23
2018-11-03T19:06:24.864Z,13.67
2018-11-03T19:08:53.130Z,12.03
2018-11-03T19:11:21.423Z,8.77
2018-11-03T19:13:49.952Z,14.60
2018-11-03T19:16:18.287Z,8.97
2018-11-03T19:18:46.752Z,12.83
2018-11-03T19:21:15.225Z,11.03
2018-11-03T19:23:43.699Z,12.40
2018-11-03T19:26:12.155Z,13.20
2018-11-03T19:28:40.512Z,12.67
2018-11-03T19:31:09.114Z,12.40
2018-11-03T19:33:37.404Z,12.23
2018-11-03T19:36:06.298Z,12.50
2018-11-03T19:38:34.769Z,15.90
2018-11-03T19:41:02.976Z,14.43
2018-11-03T19:43:31.190Z,11.07
2018-11-03T19:45:59.332Z,12.37
2018-11-03T19:48:27.509Z,10.63
2018-11-03T19:50:55.825Z,12.97
2018-11-03T19:53:24.007Z,12.53
2018-11-03T19:55:52.394Z,13.27
2018-11-03T19:58:20.675Z,14.43
2018-11-03T20:00:48.881Z,11.83
2018-11-03T20:03:17.156Z,13.97
2018-11-03T20:05:45.328Z,18.17
2018-11-03T20:08:13.451Z,12.77
2018-11-03T20:10:41.795Z,11.07
2018-11-03T20:13:09.963Z,12.07
2018-11-03T20:15:38.143Z,13.07
2018-11-03T20:18:06.439Z,13.53
2018-11-03T20:20:34.493Z,20.03
2018-11-03T20:23:02.754Z,12.27
2018-11-03T20:25:30.860Z,12.93
2018-11-03T20:27:59.050Z,16.37
2018-11-03T20:30:27.291Z,14.10
2018-11-03T20:32:55.850Z,17.23
2018-11-03T20:35:24.112Z,14.73
2018-11-03T20:37:52.273Z,12.33
2018-11-03T20:40:20.481Z,20.63
2018-11-03T20:42:48.739Z,20.10
2018-11-03T20:45:17.055Z,26.60
2018-11-03T20:47:45.206Z,25.80
2018-11-03T20:50:14.232Z,23.20
2018-11-03T20:52:42.516Z,18.93
2018-11-03T20:55:11.554Z,23.70
2018-11-03T20:57:40.038Z,22.77
2018-11-03T21:00:10.323Z,24.73
2018-11-03T21:02:38.571Z,25.40
2018-11-03T21:05:07.658Z,20.27
2018-11-03T21:07:35.828Z,20.00
2018-11-03T21:10:04.277Z,26.03
2018-11-03T21:12:32.450Z,26.43
2018-11-03T21:15:00.559Z,27.57
2018-11-03T21:17:28.819Z,22.97
2018-11-03T21:19:57.113Z,19.90
2018-11-03T21:22:25.329Z,20.93
2018-11-03T21:24:53.504Z,29.00
2018-11-03T21:27:21.676Z,24.97
2018-11-03T21:29:49.952Z,19.83
2018-11-03T21:32:18.249Z,25.17
2018-11-03T21:34:46.461Z,25.93
2018-11-03T21:37:14.596Z,21.13
2018-11-03T21:39:42.828Z,18.33
2018-11-03T21:42:11.003Z,22.57
2018-11-03T21:44:39.450Z,20.03
2018-11-03T21:47:07.827Z,21.47
2018-11-03T21:49:35.885Z,20.53
2018-11-03T21:52:04.369Z,18.53
2018-11-03T21:54:32.610Z,17.43
2018-11-03T21:57:01.575Z,21.83
2018-11-03T21:59:29.913Z,20.10
2018-11-03T22:01:58.033Z,18.93
2018-11-03T22:04:26.016Z,26.50
2018-11-03T22:06:53.991Z,19.57
2018-11-03T22:09:22.035Z,23.70
2018-11-03T22:11:50.056Z,23.77
2018-11-03T22:14:18.085Z,24.93
2018-11-03T22:16:46.116Z,28.10
2018-11-03T22:19:14.253Z,34.50
2018-11-03T22:21:42.215Z,34.57
2018-11-03T22:24:10.087Z,37.27
2018-11-03T22:26:38.012Z,33.73
2018-11-03T22:29:06.137Z,33.57
2018-11-03T22:31:34.103Z,39.03
2018-11-03T22:34:02.064Z,42.07
2018-11-03T22:36:30.240Z,36.17
2018-11-03T22:38:58.925Z,31.63
2018-11-03T22:41:27.023Z,35.07
2018-11-03T22:43:55.093Z,42.53
2018-11-03T22:46:23.075Z,39.33
2018-11-03T22:48:51.158Z,40.53
2018-11-03T22:51:19.214Z,33.07
2018-11-03T22:53:47.141Z,43.27
2018-11-03T22:56:15.162Z,33.70
2018-11-03T22:58:43.151Z,31.40
2018-11-03T23:01:11.043Z,35.23
2018-11-03T23:03:39.000Z,34.00
2018-11-03T23:06:07.031Z,30.90
2018-11-03T23:08:35.030Z,31.43
2018-11-03T23:11:03.055Z,35.67
2018-11-03T23:13:31.080Z,33.33
2018-11-03T23:15:59.367Z,39.93
2018-11-03T23:18:27.310Z,34.97
2018-11-03T23:20:55.273Z,34.23
2018-11-03T23:23:23.225Z,31.73
2018-11-03T23:25:51.121Z,38.00
2018-11-03T23:28:19.072Z,34.67
2018-11-03T23:30:46.982Z,34.50
2018-11-03T23:33:14.920Z,27.70
2018-11-03T23:35:42.840Z,28.13
2018-11-03T23:38:10.877Z,31.20
2018-11-03T23:40:38.769Z,30.97
2018-11-03T23:43:06.704Z,30.03
2018-11-03T23:45:34.596Z,33.30
2018-11-03T23:48:02.559Z,28.77
2018-11-03T23:50:30.558Z,28.37
2018-11-03T23:52:58.407Z,29.70
2018-11-03T23:55:26.345Z,27.50
2018-11-03T23:57:54.517Z,30.23
